Main page
METAR-TAF:

METAR-TAF

Airports :

Pembrey, Wales

latitude: 51-43N, longitude: 004-22W, elevation: 3 m

Current weather observation

The report was made 1 hour and 22 minutes ago, at 05:50 UTC
Wind 18 kt from the West
Temperature 14°C
Humidity 88%
Pressure 1017 hPa
Visibility 10 km or more

METAR: EGOP 190550Z AUTO 28018KT 9999 // FEW070/// 14/12 Q1017

Time: 08:12 (07:12 UTC)


TAF: missing

Weather observations and forecasts of more than 4000 airports (METAR and TAF reports).

The available stations are represented by yellow and red dots on the map.

Hover mouse over dot to see the name of the station.

Then click to see weather observations and forecasts.

To change the map : click on the green buttons with a black cross to zoom in, on the green button with a dash to zoom out, or on the green arrows for adjacent maps.


METAR-TAF: